Time;durP1;ratioP1;P1;durP2;ratioP2;P2;SDS_P1;SDS_P2;PMS_P1;PMS_P2;Temp;Humidity;BMP_temperature;BMP_pressure;BME280_temperature;BME280_humidity;BME280_pressure;Samples;Min_cycle;Max_cycle;Signal;HPM_P1;HPM_P2
2021/03/18 00:01:23;;;;;;;7.43;5.30;;;;;;;2.52;68.10;97292.53;5072494;28;20511;-68
2021/03/18 00:03:50;;;;;;;8.70;5.80;;;;;;;2.23;69.10;97287.47;5073618;28;20456;-67
2021/03/18 00:06:16;;;;;;;9.30;5.73;;;;;;;2.10;69.51;97285.66;5073614;28;20213;-67
2021/03/18 00:08:42;;;;;;;8.63;5.80;;;;;;;2.13;69.91;97288.06;5064971;28;20446;-67
2021/03/18 00:11:12;;;;;;;13.70;7.10;;;;;;;2.58;68.39;97298.13;5071204;28;20922;-67
2021/03/18 00:13:38;;;;;;;11.07;6.30;;;;;;;2.50;69.22;97284.03;5071670;28;20417;-67
2021/03/18 00:16:05;;;;;;;8.80;6.10;;;;;;;2.64;68.93;97290.91;5072023;28;20441;-68
2021/03/18 00:18:34;;;;;;;8.23;5.73;;;;;;;2.69;68.36;97292.25;5073710;28;20420;-68
2021/03/18 00:21:01;;;;;;;13.17;7.03;;;;;;;2.73;68.28;97290.31;5071068;28;20420;-67
2021/03/18 00:23:28;;;;;;;12.70;7.13;;;;;;;2.86;67.44;97278.22;5064218;28;20435;-67
2021/03/18 00:25:54;;;;;;;13.53;5.43;;;;;;;2.75;67.77;97285.84;5071320;28;20432;-66
2021/03/18 00:28:19;;;;;;;12.27;6.90;;;;;;;2.44;69.00;97291.28;5073609;28;20442;-68
2021/03/18 00:30:45;;;;;;;10.60;6.90;;;;;;;2.53;69.57;97289.00;5073716;28;20178;-68
2021/03/18 00:33:11;;;;;;;12.73;6.70;;;;;;;2.58;68.68;97287.78;5073927;28;20182;-67
2021/03/18 00:35:37;;;;;;;9.43;6.40;;;;;;;2.34;69.58;97284.19;5073180;28;20198;-68
2021/03/18 00:38:03;;;;;;;9.90;6.70;;;;;;;2.64;68.62;97291.72;5072279;28;20263;-68
2021/03/18 00:40:37;;;;;;;9.27;6.53;;;;;;;2.47;68.35;97279.91;5072225;28;20425;-67
2021/03/18 00:43:05;;;;;;;10.00;6.53;;;;;;;2.37;68.76;97276.25;5071495;28;20926;-67
2021/03/18 00:45:33;;;;;;;11.40;6.53;;;;;;;2.55;68.28;97280.22;5074681;28;20455;-67
2021/03/18 00:48:00;;;;;;;12.83;7.00;;;;;;;2.66;67.69;97268.31;5072650;28;20421;-68
2021/03/18 00:50:33;;;;;;;8.60;5.93;;;;;;;2.73;67.44;97269.59;5073562;28;20493;-68
2021/03/18 00:52:58;;;;;;;7.07;6.00;;;;;;;2.90;66.17;97261.50;5069943;28;20416;-68
2021/03/18 00:55:24;;;;;;;7.40;6.13;;;;;;;3.13;65.74;97253.97;5067013;28;20570;-67
2021/03/18 00:57:51;;;;;;;10.03;5.63;;;;;;;3.16;65.03;97248.56;5066197;28;20487;-68
2021/03/18 01:00:25;;;;;;;14.17;6.47;;;;;;;3.00;65.31;97255.75;5071565;28;20420;-68
2021/03/18 01:02:52;;;;;;;10.03;5.67;;;;;;;2.80;66.05;97255.28;5072907;28;20460;-67
2021/03/18 01:05:23;;;;;;;8.30;6.00;;;;;;;2.49;66.20;97251.31;5074260;28;20464;-68
2021/03/18 01:07:49;;;;;;;7.57;5.30;;;;;;;2.82;65.36;97253.44;5073179;28;20458;-68
2021/03/18 01:10:15;;;;;;;16.33;6.57;;;;;;;2.94;64.87;97250.97;5072383;28;20448;-67
2021/03/18 01:12:41;;;;;;;9.80;5.73;;;;;;;3.02;64.59;97251.28;5071413;28;20259;-67
2021/03/18 01:15:08;;;;;;;10.43;6.00;;;;;;;2.87;64.88;97256.56;5069508;28;20886;-68
2021/03/18 01:17:33;;;;;;;10.63;5.87;;;;;;;2.74;65.54;97253.94;5068109;28;20191;-66
2021/03/18 01:20:00;;;;;;;11.43;5.60;;;;;;;2.43;66.53;97255.13;5070712;28;20435;-67
2021/03/18 01:22:25;;;;;;;7.10;5.70;;;;;;;2.80;65.69;97255.28;5073238;28;20419;-68
2021/03/18 01:24:53;;;;;;;8.60;6.13;;;;;;;2.70;65.77;97251.66;5051771;28;20755;-66
2021/03/18 01:27:20;;;;;;;7.43;5.70;;;;;;;2.80;65.63;97251.91;5073032;28;20189;-67
2021/03/18 01:29:45;;;;;;;10.27;6.27;;;;;;;2.63;66.14;97255.59;5071732;28;20541;-67
2021/03/18 01:32:11;;;;;;;8.63;5.60;;;;;;;2.30;66.71;97252.53;5072538;28;20421;-68
2021/03/18 01:34:37;;;;;;;7.27;5.10;;;;;;;2.70;65.66;97254.25;5071776;28;20235;-67
2021/03/18 01:37:02;;;;;;;8.40;5.90;;;;;;;2.74;65.45;97256.53;5071883;28;20243;-67
2021/03/18 01:39:28;;;;;;;8.20;5.50;;;;;;;3.03;64.49;97252.91;5069975;28;20194;-67
2021/03/18 01:41:54;;;;;;;6.17;5.10;;;;;;;2.98;64.64;97252.41;5065926;28;20183;-67
2021/03/18 01:44:19;;;;;;;7.43;4.90;;;;;;;3.05;64.60;97254.50;5077464;28;20266;-65
2021/03/18 01:46:45;;;;;;;6.93;4.53;;;;;;;3.09;63.91;97247.34;5071597;28;20661;-67
2021/03/18 01:49:11;;;;;;;9.80;5.40;;;;;;;3.21;63.67;97250.88;5071102;28;20216;-67
2021/03/18 01:51:37;;;;;;;6.80;5.10;;;;;;;3.27;63.29;97247.03;5070635;28;20269;-66
2021/03/18 01:54:03;;;;;;;9.60;5.40;;;;;;;3.38;63.12;97245.34;5071226;28;20649;-67
2021/03/18 01:56:28;;;;;;;7.87;4.73;;;;;;;3.20;63.61;97246.63;5071503;28;20437;-68
2021/03/18 01:58:54;;;;;;;6.57;5.50;;;;;;;2.95;64.42;97248.28;5064030;28;20254;-67
2021/03/18 02:01:20;;;;;;;8.43;5.20;;;;;;;3.11;63.37;97250.66;5071766;28;20244;-67
2021/03/18 02:03:46;;;;;;;6.80;5.50;;;;;;;2.90;64.08;97245.16;5075304;28;20186;-67
2021/03/18 02:06:12;;;;;;;6.93;5.07;;;;;;;3.19;63.51;97232.81;5075851;28;20210;-65
2021/03/18 02:08:37;;;;;;;14.50;5.00;;;;;;;3.22;63.44;97239.53;5074116;28;20500;-68
2021/03/18 02:11:04;;;;;;;12.83;4.60;;;;;;;3.11;64.04;97248.06;5075557;28;20273;-67
2021/03/18 02:13:30;;;;;;;8.27;5.40;;;;;;;3.14;63.43;97240.09;5073663;28;20189;-69
2021/03/18 02:15:57;;;;;;;6.03;4.73;;;;;;;3.04;63.42;97237.28;5072349;28;20935;-67
2021/03/18 02:18:41;;;;;;;10.80;5.13;;;;;;;3.12;63.23;97236.78;5074351;28;20602;-67
2021/03/18 02:21:37;;;;;;;5.37;4.67;;;;;;;3.32;62.88;97239.75;5071719;28;20448;-68
2021/03/18 02:24:22;;;;;;;6.83;4.40;;;;;;;3.49;63.10;97236.81;5071457;28;20516;-66
2021/03/18 02:27:15;;;;;;;9.33;4.40;;;;;;;3.26;62.51;97230.63;5073831;28;20468;-68
2021/03/18 02:30:11;;;;;;;6.87;5.40;;;;;;;2.99;63.22;97238.53;5073395;28;20464;-68
2021/03/18 02:32:48;;;;;;;13.50;5.80;;;;;;;2.69;64.84;97239.66;5065147;28;20922;-67
2021/03/18 02:35:36;;;;;;;8.87;5.10;;;;;;;2.78;64.20;97238.22;5066358;28;20427;-67
2021/03/18 02:38:08;;;;;;;8.00;5.40;;;;;;;2.77;64.59;97240.00;5074871;28;20734;-66
2021/03/18 02:40:37;;;;;;;6.50;5.30;;;;;;;2.97;63.97;97246.41;5075058;28;20424;-68
2021/03/18 02:43:08;;;;;;;13.17;5.50;;;;;;;2.81;64.10;97245.78;5081683;28;20421;-70
2021/03/18 02:45:37;;;;;;;8.63;5.50;;;;;;;2.74;64.54;97250.53;5084865;28;20440;-67
2021/03/18 02:48:05;;;;;;;7.27;5.07;;;;;;;2.67;64.95;97239.78;5067080;28;20418;-67
2021/03/18 02:50:33;;;;;;;9.63;5.77;;;;;;;2.50;65.55;97253.81;5075743;28;20461;-67
2021/03/18 02:52:59;;;;;;;7.20;5.60;;;;;;;2.84;64.73;97246.41;5067078;28;20425;-67
2021/03/18 02:55:26;;;;;;;7.03;5.13;;;;;;;2.85;64.93;97257.56;5077429;28;20511;-67
2021/03/18 02:57:52;;;;;;;7.40;5.37;;;;;;;2.72;65.37;97258.41;5086091;28;20463;-68
2021/03/18 03:00:18;;;;;;;6.67;4.90;;;;;;;2.65;65.20;97256.34;5087691;28;20888;-69
2021/03/18 03:02:46;;;;;;;8.73;5.00;;;;;;;2.34;66.40;97255.75;5080397;28;20422;-70
2021/03/18 03:05:13;;;;;;;8.60;5.20;;;;;;;2.27;66.82;97263.06;5088596;28;20497;-67
2021/03/18 03:07:41;;;;;;;9.43;5.80;;;;;;;2.55;65.79;97261.28;5077092;28;20447;-67
2021/03/18 03:10:08;;;;;;;7.90;5.30;;;;;;;2.50;66.25;97265.91;5059507;28;20464;-67
2021/03/18 03:12:35;;;;;;;9.57;6.07;;;;;;;2.61;66.64;97259.13;5064634;28;20424;-67
2021/03/18 03:15:01;;;;;;;9.70;6.10;;;;;;;2.79;65.89;97260.59;5072381;28;20813;-68
2021/03/18 03:17:27;;;;;;;8.33;5.67;;;;;;;2.66;66.43;97256.22;5074801;28;20423;-68
2021/03/18 03:19:55;;;;;;;10.20;5.90;;;;;;;2.81;65.90;97262.13;5077823;28;20193;-66
2021/03/18 03:22:21;;;;;;;10.77;6.17;;;;;;;3.05;65.35;97264.00;5073034;28;20431;-68
2021/03/18 03:24:47;;;;;;;6.33;5.23;;;;;;;3.12;64.91;97265.28;5047741;28;20468;-68
2021/03/18 03:27:13;;;;;;;7.33;5.37;;;;;;;3.33;64.38;97254.38;5068182;28;20488;-67
2021/03/18 03:29:42;;;;;;;6.17;5.37;;;;;;;3.42;63.73;97251.13;5067926;28;21026;-67
2021/03/18 03:32:09;;;;;;;8.93;4.90;;;;;;;3.61;63.57;97252.44;5072225;28;20420;-69
2021/03/18 03:34:35;;;;;;;6.60;4.80;;;;;;;3.53;62.46;97251.22;5065722;28;20489;-68
2021/03/18 03:37:01;;;;;;;8.03;5.10;;;;;;;3.36;62.97;97249.78;5072782;28;20433;-69
2021/03/18 03:39:27;;;;;;;9.50;4.90;;;;;;;3.28;63.00;97251.25;5073480;28;20416;-68
2021/03/18 03:41:53;;;;;;;7.90;5.00;;;;;;;3.10;64.03;97264.53;5071683;28;20447;-68
2021/03/18 03:44:20;;;;;;;7.80;5.50;;;;;;;2.82;65.25;97257.81;5061957;28;20183;-67
2021/03/18 03:46:46;;;;;;;7.10;5.60;;;;;;;2.80;64.95;97264.84;5061262;28;20661;-68
2021/03/18 03:49:12;;;;;;;7.47;5.23;;;;;;;2.71;64.67;97267.09;5072799;28;20463;-66
2021/03/18 03:52:01;;;;;;;7.77;5.00;;;;;;;3.11;64.37;97273.97;5073906;28;20420;-68
2021/03/18 03:54:28;;;;;;;9.90;5.70;;;;;;;2.92;64.61;97267.41;5051933;28;20258;-67
2021/03/18 03:57:02;;;;;;;11.07;6.50;;;;;;;2.90;64.31;97264.09;5062249;28;20492;-68
2021/03/18 03:59:30;;;;;;;10.87;5.63;;;;;;;2.54;65.84;97264.81;5067766;28;20413;-68
2021/03/18 04:01:57;;;;;;;8.00;5.87;;;;;;;2.64;65.92;97270.22;5059870;28;20429;-68
2021/03/18 04:04:44;;;;;;;7.77;5.77;;;;;;;2.77;65.50;97265.88;5051546;28;20617;-68
2021/03/18 04:07:13;;;;;;;10.17;6.13;;;;;;;2.52;66.74;97272.63;5045201;28;20426;-67
2021/03/18 04:09:39;;;;;;;9.67;5.47;;;;;;;2.56;66.51;97268.94;5053018;28;20522;-68
2021/03/18 04:12:07;;;;;;;8.47;6.10;;;;;;;2.42;66.98;97269.84;5051867;28;20425;-67
2021/03/18 04:14:35;;;;;;;8.17;5.47;;;;;;;2.54;66.48;97269.97;5051927;28;20520;-67
2021/03/18 04:17:09;;;;;;;6.00;5.40;;;;;;;2.43;67.07;97273.25;5033845;28;20522;-67
2021/03/18 04:19:36;;;;;;;8.70;5.27;;;;;;;2.36;67.34;97274.59;5055553;28;20420;-67
2021/03/18 04:22:03;;;;;;;8.50;5.90;;;;;;;2.38;67.06;97268.38;5052201;28;20512;-67
2021/03/18 04:24:29;;;;;;;9.60;6.00;;;;;;;2.71;66.38;97269.69;5050674;28;20429;-67
2021/03/18 04:26:55;;;;;;;8.37;5.40;;;;;;;2.90;65.34;97269.28;5059823;28;20426;-68
2021/03/18 04:29:22;;;;;;;5.70;5.10;;;;;;;2.87;65.18;97259.16;5055836;28;20475;-68
2021/03/18 04:31:48;;;;;;;6.20;5.00;;;;;;;2.97;64.92;97250.75;5063651;28;20182;-67
2021/03/18 04:34:15;;;;;;;9.50;5.23;;;;;;;2.98;64.25;97249.84;5053288;28;20418;-67
2021/03/18 04:36:42;;;;;;;8.10;5.60;;;;;;;2.74;65.27;97260.91;5051767;28;20430;-68
2021/03/18 04:39:08;;;;;;;7.80;5.27;;;;;;;2.65;64.80;97254.56;5049451;28;20409;-68
2021/03/18 04:41:34;;;;;;;10.53;6.43;;;;;;;2.47;65.32;97264.38;5051094;28;20421;-67
2021/03/18 04:44:01;;;;;;;13.73;5.60;;;;;;;2.56;65.31;97266.34;5057935;28;20183;-68
2021/03/18 04:46:29;;;;;;;6.83;5.40;;;;;;;2.43;65.38;97270.66;5051786;28;20202;-67
2021/03/18 04:48:57;;;;;;;9.10;5.23;;;;;;;2.68;65.30;97269.06;5050244;28;20990;-68
2021/03/18 04:51:23;;;;;;;7.87;5.77;;;;;;;2.96;64.28;97268.03;5050904;28;20877;-67
2021/03/18 04:53:48;;;;;;;9.53;5.33;;;;;;;3.14;63.37;97268.59;5050739;28;20429;-68
2021/03/18 04:56:15;;;;;;;10.93;5.50;;;;;;;3.21;63.52;97275.00;5052241;28;20203;-68
2021/03/18 04:58:40;;;;;;;9.00;5.20;;;;;;;3.08;63.70;97271.56;5062347;28;20201;-67
2021/03/18 05:01:07;;;;;;;6.53;5.17;;;;;;;3.06;64.16;97265.66;5052187;28;20517;-68
2021/03/18 05:03:33;;;;;;;9.63;4.60;;;;;;;3.17;63.53;97262.34;5056115;28;20193;-68
2021/03/18 05:06:00;;;;;;;9.40;5.87;;;;;;;3.33;62.88;97252.63;5052519;28;20445;-66
2021/03/18 05:08:27;;;;;;;5.27;4.73;;;;;;;2.98;63.49;97262.78;5050673;28;20421;-68
2021/03/18 05:10:54;;;;;;;6.20;4.80;;;;;;;2.88;64.54;97262.56;5050342;28;20948;-68
2021/03/18 05:13:19;;;;;;;7.10;5.23;;;;;;;2.88;64.51;97259.97;5050116;28;20946;-68
2021/03/18 05:15:46;;;;;;;8.23;5.90;;;;;;;3.08;64.57;97256.03;5051506;28;20524;-68
2021/03/18 05:18:15;;;;;;;5.27;4.73;;;;;;;2.87;64.50;97251.38;5057762;28;20190;-68
2021/03/18 05:20:42;;;;;;;10.53;5.20;;;;;;;3.09;63.55;97254.28;5056567;28;20433;-67
2021/03/18 05:23:10;;;;;;;10.70;5.93;;;;;;;3.21;64.00;97246.50;5059008;28;20512;-68
2021/03/18 05:25:36;;;;;;;8.50;5.77;;;;;;;3.14;63.46;97268.59;5050808;28;20453;-68
2021/03/18 05:28:02;;;;;;;7.53;5.80;;;;;;;2.98;64.40;97255.81;5050866;28;20442;-67
2021/03/18 05:30:29;;;;;;;13.10;5.60;;;;;;;2.86;64.77;97264.41;5041001;28;20454;-68
2021/03/18 05:32:56;;;;;;;8.83;6.40;;;;;;;3.00;63.90;97263.50;5052782;28;20193;-68
2021/03/18 05:35:22;;;;;;;9.17;5.97;;;;;;;2.87;64.54;97263.47;5052282;28;20487;-68
2021/03/18 05:37:48;;;;;;;7.10;5.37;;;;;;;3.02;64.40;97256.47;5049320;28;20856;-67
2021/03/18 05:40:14;;;;;;;13.13;5.53;;;;;;;2.84;64.51;97267.13;5050508;28;20268;-68
2021/03/18 05:42:40;;;;;;;9.67;5.13;;;;;;;2.91;64.57;97260.59;5059847;28;20183;-68
2021/03/18 05:45:09;;;;;;;6.80;5.53;;;;;;;3.09;63.96;97265.47;5054440;28;20441;-68
2021/03/18 05:47:36;;;;;;;13.80;5.70;;;;;;;3.05;63.97;97264.00;5063017;28;20942;-67
2021/03/18 05:50:04;;;;;;;12.63;6.93;;;;;;;3.27;63.87;97262.56;5058406;28;20514;-68
2021/03/18 05:52:31;;;;;;;9.50;6.97;;;;;;;3.14;63.84;97263.41;5050830;28;20946;-68
2021/03/18 05:54:57;;;;;;;6.47;5.43;;;;;;;3.12;63.82;97260.09;5057174;28;20454;-68
2021/03/18 05:57:23;;;;;;;7.03;5.40;;;;;;;2.98;64.25;97268.78;5053399;28;20425;-66
2021/03/18 05:59:49;;;;;;;13.20;6.20;;;;;;;3.03;64.39;97271.88;5051351;28;20425;-67
2021/03/18 06:02:16;;;;;;;9.43;5.83;;;;;;;2.92;65.04;97264.03;5050199;28;20269;-67
2021/03/18 06:04:42;;;;;;;10.00;6.60;;;;;;;3.00;64.78;97271.28;5056155;28;20912;-67
2021/03/18 06:07:08;;;;;;;11.43;6.47;;;;;;;2.68;65.71;97263.88;5058270;28;20474;-67
2021/03/18 06:09:34;;;;;;;10.13;6.30;;;;;;;2.54;66.63;97270.78;5050810;28;20461;-68
2021/03/18 06:12:00;;;;;;;12.67;7.37;;;;;;;2.86;66.23;97270.44;5067978;28;20449;-69
2021/03/18 06:14:26;;;;;;;9.83;6.50;;;;;;;2.66;65.61;97273.50;5064003;28;20439;-67
2021/03/18 06:16:53;;;;;;;12.93;6.50;;;;;;;2.97;65.63;97274.06;5100939;28;20206;-67
2021/03/18 06:19:19;;;;;;;9.20;6.33;;;;;;;2.86;65.57;97270.44;5067124;28;20420;-67
2021/03/18 06:21:52;;;;;;;11.20;6.83;;;;;;;2.96;65.62;97269.81;5071087;28;20474;-69
2021/03/18 06:24:25;;;;;;;11.47;6.17;;;;;;;2.86;65.79;97277.34;5063936;28;20224;-67
2021/03/18 06:26:51;;;;;;;12.77;6.97;;;;;;;2.95;65.27;97279.34;5068768;28;20444;-69
2021/03/18 06:29:29;;;;;;;13.00;6.63;;;;;;;2.66;65.86;97279.53;5069627;28;20923;-69
2021/03/18 06:31:55;;;;;;;11.50;7.07;;;;;;;2.86;65.33;97275.63;5069249;28;20432;-67
2021/03/18 06:34:37;;;;;;;13.60;7.50;;;;;;;2.86;65.89;97275.63;5064372;28;20612;-67
2021/03/18 06:37:03;;;;;;;15.67;6.37;;;;;;;3.22;65.12;97270.63;5071081;28;20427;-66
2021/03/18 06:39:31;;;;;;;14.77;7.33;;;;;;;2.84;65.57;97277.47;5069773;28;20433;-67
2021/03/18 06:41:59;;;;;;;8.67;6.80;;;;;;;3.02;65.35;97267.63;5063138;28;20998;-67
2021/03/18 06:44:29;;;;;;;16.70;7.90;;;;;;;3.16;65.10;97264.09;5068338;28;20853;-69
2021/03/18 06:46:58;;;;;;;11.50;6.97;;;;;;;3.45;63.87;97261.28;5066887;28;20527;-69
2021/03/18 06:49:25;;;;;;;13.70;7.10;;;;;;;3.30;64.94;97259.75;5064940;28;20950;-67
2021/03/18 06:52:07;;;;;;;21.37;7.57;;;;;;;3.14;65.05;97258.22;5073245;28;20504;-68
2021/03/18 06:54:43;;;;;;;26.00;7.40;;;;;;;3.52;63.83;97259.09;5073578;28;20433;-67
2021/03/18 06:57:10;;;;;;;9.73;6.70;;;;;;;3.80;63.38;97267.53;5056466;28;20488;-68
2021/03/18 06:59:38;;;;;;;14.30;8.10;;;;;;;4.14;61.64;97262.53;5068093;28;20416;-68
2021/03/18 07:02:13;;;;;;;15.67;7.13;;;;;;;3.93;61.65;97254.53;5071961;28;20429;-67
2021/03/18 07:04:45;;;;;;;9.67;6.13;;;;;;;3.84;60.74;97269.00;5071006;28;20443;-67
2021/03/18 07:07:11;;;;;;;8.30;6.23;;;;;;;3.89;61.10;97258.28;5074894;28;20580;-67
2021/03/18 07:09:39;;;;;;;16.90;6.40;;;;;;;4.08;60.92;97263.81;5073374;28;20453;-67
2021/03/18 07:12:07;;;;;;;11.80;6.30;;;;;;;4.22;60.05;97261.97;5083519;28;20417;-68
2021/03/18 07:14:44;;;;;;;8.10;6.10;;;;;;;4.23;61.00;97271.44;5077159;28;20430;-69
2021/03/18 07:17:11;;;;;;;38.37;11.20;;;;;;;4.35;60.41;97270.53;5063417;28;20490;-66
2021/03/18 07:19:37;;;;;;;48.33;11.17;;;;;;;4.30;60.17;97272.63;5070634;28;20512;-68
2021/03/18 07:22:03;;;;;;;27.43;9.33;;;;;;;4.49;59.21;97271.31;5072762;28;20953;-67
2021/03/18 07:24:35;;;;;;;35.07;11.27;;;;;;;4.41;60.13;97270.06;5071673;28;20200;-68
2021/03/18 07:27:15;;;;;;;17.03;7.77;;;;;;;4.37;59.55;97273.84;5087512;28;20519;-68
2021/03/18 07:29:46;;;;;;;43.77;11.17;;;;;;;4.43;59.46;97273.38;5072705;28;20456;-67
2021/03/18 07:32:13;;;;;;;11.60;7.10;;;;;;;4.62;58.28;97266.88;5060341;28;20489;-67
2021/03/18 07:34:43;;;;;;;16.33;6.60;;;;;;;4.80;58.63;97269.88;5075114;28;20484;-66
2021/03/18 07:37:10;;;;;;;13.13;6.70;;;;;;;4.83;57.64;97259.25;5066207;28;20490;-67
2021/03/18 07:39:40;;;;;;;10.53;6.60;;;;;;;5.19;56.78;97265.19;5073490;28;20925;-68
2021/03/18 07:42:07;;;;;;;11.43;6.50;;;;;;;5.08;56.74;97268.59;5070098;28;20426;-68
2021/03/18 07:44:34;;;;;;;13.47;7.30;;;;;;;5.19;56.82;97265.19;5063669;28;20529;-68
2021/03/18 07:47:01;;;;;;;14.23;7.67;;;;;;;5.27;55.99;97267.22;5071338;28;20432;-67
2021/03/18 07:49:29;;;;;;;16.63;7.67;;;;;;;5.53;55.52;97259.19;5063112;28;20800;-67
2021/03/18 07:52:00;;;;;;;11.50;6.97;;;;;;;5.74;54.92;97259.25;5072397;28;20413;-67
2021/03/18 07:54:26;;;;;;;9.17;6.70;;;;;;;5.92;55.09;97256.97;5049506;28;20763;-67
2021/03/18 07:56:54;;;;;;;14.20;7.17;;;;;;;6.12;54.45;97259.81;5063593;28;20445;-67
2021/03/18 07:59:20;;;;;;;11.53;6.90;;;;;;;6.30;53.95;97266.13;5065679;28;20499;-68
2021/03/18 08:01:46;;;;;;;8.40;6.47;;;;;;;6.32;53.19;97259.97;5072938;28;20432;-69
2021/03/18 08:04:13;;;;;;;9.97;6.43;;;;;;;6.04;53.36;97251.81;5073119;28;20424;-68
2021/03/18 08:06:39;;;;;;;10.47;6.33;;;;;;;6.36;52.88;97259.63;5055006;28;20836;-69
2021/03/18 08:09:16;;;;;;;9.10;7.07;;;;;;;6.50;52.30;97255.88;5073060;28;20460;-69
2021/03/18 08:11:48;;;;;;;10.40;6.63;;;;;;;6.21;52.61;97256.47;5075223;28;20189;-68
2021/03/18 08:14:16;;;;;;;12.57;7.60;;;;;;;6.38;52.73;97251.69;5073184;28;20428;-68
2021/03/18 08:16:42;;;;;;;10.50;7.00;;;;;;;6.81;51.60;97252.53;5061068;28;20445;-68
2021/03/18 08:19:10;;;;;;;11.23;7.43;;;;;;;7.06;50.15;97246.94;5069956;28;20435;-68
2021/03/18 08:21:49;;;;;;;12.60;7.73;;;;;;;7.37;49.64;97244.31;5071959;28;20425;-69
2021/03/18 08:24:24;;;;;;;12.03;7.60;;;;;;;7.50;49.24;97241.50;5049615;28;20810;-67
2021/03/18 08:26:57;;;;;;;13.57;8.13;;;;;;;7.61;48.35;97240.56;5071902;28;20501;-68
2021/03/18 08:29:41;;;;;;;13.87;7.70;;;;;;;7.79;47.90;97232.09;5068416;28;20564;-67
2021/03/18 08:32:27;;;;;;;13.20;6.70;;;;;;;7.79;48.04;97235.53;5064793;28;20499;-68
2021/03/18 08:35:00;;;;;;;10.97;7.03;;;;;;;8.23;47.08;97235.19;5068090;28;20445;-67
2021/03/18 08:37:42;;;;;;;13.73;7.67;;;;;;;8.33;46.98;97232.56;5049067;28;20429;-66
2021/03/18 08:40:29;;;;;;;14.40;7.70;;;;;;;8.18;46.43;97233.94;5059281;28;20517;-66
2021/03/18 08:43:03;;;;;;;12.40;6.80;;;;;;;8.13;46.10;97232.56;5054985;28;21122;-67
2021/03/18 08:45:30;;;;;;;10.10;7.10;;;;;;;8.50;46.05;97238.94;5087346;28;20468;-67
2021/03/18 08:48:02;;;;;;;12.17;7.57;;;;;;;8.69;46.63;97229.41;5056130;28;20875;-66
2021/03/18 08:50:27;;;;;;;10.20;7.10;;;;;;;8.65;45.89;97230.66;5039980;28;21004;-68
2021/03/18 08:52:54;;;;;;;14.20;6.90;;;;;;;8.45;45.27;97228.84;5067543;28;20432;-68
2021/03/18 08:55:40;;;;;;;14.20;7.30;;;;;;;8.12;46.51;97227.50;5060511;28;20221;-67
2021/03/18 08:58:06;;;;;;;9.23;6.70;;;;;;;8.25;45.65;97229.81;5039743;28;20520;-67
2021/03/18 09:00:32;;;;;;;12.33;7.50;;;;;;;7.94;46.65;97224.72;5052331;28;20449;-67
2021/03/18 09:02:59;;;;;;;9.13;6.67;;;;;;;8.42;46.34;97223.91;5063257;28;20436;-66
2021/03/18 09:05:25;;;;;;;7.63;6.30;;;;;;;8.21;46.49;97223.22;5067349;28;20453;-68
2021/03/18 09:07:55;;;;;;;12.43;7.10;;;;;;;8.20;45.40;97224.16;5066156;28;20928;-67
2021/03/18 09:10:26;;;;;;;11.57;7.50;;;;;;;8.49;45.26;97221.63;5069931;28;20289;-69
2021/03/18 09:13:22;;;;;;;9.47;6.10;;;;;;;8.61;44.27;97217.03;5061531;28;20421;-67
2021/03/18 09:15:52;;;;;;;8.80;5.93;;;;;;;8.60;44.73;97224.06;4981588;28;20461;-66
2021/03/18 09:18:23;;;;;;;8.87;6.80;;;;;;;8.78;43.66;97219.91;5011319;28;20427;-67
2021/03/18 09:21:01;;;;;;;9.20;6.57;;;;;;;8.87;43.85;97213.84;5010743;28;20447;-66
2021/03/18 09:23:29;;;;;;;11.20;6.43;;;;;;;8.05;44.85;97222.00;5006806;28;21157;-67
2021/03/18 09:25:59;;;;;;;8.40;6.30;;;;;;;8.20;42.68;97224.16;5017350;28;20455;-67
2021/03/18 09:28:31;;;;;;;9.40;5.87;;;;;;;8.06;43.63;97213.19;4994653;28;20454;-68
2021/03/18 09:30:56;;;;;;;9.00;6.57;;;;;;;8.17;44.08;97214.84;5018616;28;20427;-67
2021/03/18 09:33:30;;;;;;;10.47;6.50;;;;;;;8.22;44.40;97203.97;5010582;28;20530;-66
2021/03/18 09:35:59;;;;;;;7.27;6.33;;;;;;;7.86;42.38;97211.50;5011465;28;20443;-68
2021/03/18 09:38:27;;;;;;;8.60;6.50;;;;;;;7.10;47.60;97213.59;4994431;28;20438;-67
2021/03/18 09:40:54;;;;;;;17.57;7.53;;;;;;;6.27;51.51;97216.94;5010318;28;20844;-67
2021/03/18 09:43:21;;;;;;;15.03;8.20;;;;;;;6.04;53.81;97218.78;5010194;28;20905;-67
2021/03/18 09:45:57;;;;;;;9.30;6.70;;;;;;;5.90;53.08;97213.84;5010634;28;20959;-67
2021/03/18 09:48:29;;;;;;;25.07;10.90;;;;;;;5.73;54.02;97212.56;5012388;28;20474;-67
2021/03/18 09:51:10;;;;;;;10.03;7.23;;;;;;;5.47;53.55;97218.91;5017353;28;20416;-67
2021/03/18 09:53:36;;;;;;;20.23;7.93;;;;;;;5.86;52.98;97212.44;5054587;28;20421;-67
2021/03/18 09:56:13;;;;;;;161.23;30.83;;;;;;;6.07;52.47;97218.56;5063763;28;20438;-68
2021/03/18 09:58:39;;;;;;;17.00;8.80;;;;;;;6.10;52.32;97209.66;5060054;28;20420;-68
2021/03/18 10:01:22;;;;;;;12.13;6.70;;;;;;;5.77;51.75;97207.00;5072678;28;20953;-67
2021/03/18 10:03:57;;;;;;;13.73;6.73;;;;;;;5.62;52.50;97203.84;5072372;28;20507;-68
2021/03/18 10:06:26;;;;;;;6.90;5.90;;;;;;;5.21;51.05;97200.13;5067407;28;20437;-68
2021/03/18 10:08:53;;;;;;;9.00;6.23;;;;;;;5.42;50.63;97207.22;5070525;28;20460;-67
2021/03/18 10:11:21;;;;;;;10.20;5.23;;;;;;;5.77;49.52;97203.59;5070181;28;20424;-67
2021/03/18 10:13:47;;;;;;;9.90;6.10;;;;;;;5.77;49.79;97199.22;5056118;28;20422;-69
2021/03/18 10:16:13;;;;;;;9.40;6.40;;;;;;;6.17;49.96;97200.44;5058199;28;20444;-67
2021/03/18 10:18:38;;;;;;;11.93;6.73;;;;;;;5.67;49.46;97191.31;5059480;28;20213;-69
2021/03/18 10:21:05;;;;;;;12.30;7.03;;;;;;;5.92;52.30;97191.94;5058025;28;20187;-67
2021/03/18 10:23:31;;;;;;;12.93;6.70;;;;;;;6.23;51.58;97192.09;5073207;28;20224;-67
2021/03/18 10:25:56;;;;;;;8.50;6.47;;;;;;;5.96;51.41;97185.56;5074420;28;20440;-66
2021/03/18 10:28:28;;;;;;;13.90;7.30;;;;;;;6.52;50.84;97181.09;5075157;28;20455;-68
2021/03/18 10:30:54;;;;;;;12.40;6.90;;;;;;;6.24;51.01;97192.91;5074461;28;20213;-66
2021/03/18 10:33:24;;;;;;;12.23;7.03;;;;;;;5.84;51.10;97186.53;5076666;28;21039;-68
2021/03/18 10:35:53;;;;;;;8.90;6.03;;;;;;;6.19;50.66;97182.88;5074756;28;20252;-66
2021/03/18 10:38:31;;;;;;;11.13;6.43;;;;;;;6.13;50.45;97189.41;5075592;28;20429;-67
2021/03/18 10:40:58;;;;;;;12.03;6.97;;;;;;;6.44;50.49;97181.72;5049287;28;20509;-66
2021/03/18 10:43:27;;;;;;;9.87;6.90;;;;;;;6.30;50.96;97193.25;5065911;28;20511;-67
2021/03/18 10:45:59;;;;;;;9.43;7.10;;;;;;;6.78;50.09;97178.09;5063615;28;20576;-66
2021/03/18 10:48:27;;;;;;;9.70;6.93;;;;;;;6.20;51.73;97179.34;5074182;28;20425;-67
2021/03/18 10:50:54;;;;;;;11.13;6.70;;;;;;;6.89;49.69;97174.56;5065535;28;20500;-67
2021/03/18 10:53:22;;;;;;;7.70;6.30;;;;;;;6.86;49.07;97170.44;5075630;28;20423;-66
2021/03/18 10:55:51;;;;;;;9.63;6.20;;;;;;;7.46;47.02;97167.06;5067920;28;20461;-67
2021/03/18 10:58:24;;;;;;;13.30;7.07;;;;;;;7.41;47.98;97161.47;5070287;28;20416;-67
2021/03/18 11:01:00;;;;;;;8.90;6.20;;;;;;;7.95;46.12;97161.94;5068919;28;20429;-67
2021/03/18 11:03:36;;;;;;;6.37;4.97;;;;;;;8.45;44.55;97160.13;5053386;28;20562;-67
2021/03/18 11:06:22;;;;;;;13.20;6.43;;;;;;;8.61;43.51;97154.34;5059322;28;20437;-68
2021/03/18 11:08:53;;;;;;;7.67;5.50;;;;;;;8.69;43.58;97154.47;5052323;28;20800;-68
2021/03/18 11:11:26;;;;;;;8.80;6.00;;;;;;;8.57;43.24;97160.81;5055526;28;20514;-66
2021/03/18 11:14:05;;;;;;;8.97;5.53;;;;;;;8.50;44.65;97157.13;5036688;28;20483;-67
2021/03/18 11:16:31;;;;;;;8.93;5.20;;;;;;;8.91;43.09;97153.28;5060121;28;20435;-68
2021/03/18 11:18:59;;;;;;;8.23;5.50;;;;;;;9.25;42.43;97151.13;5056130;28;20422;-67
2021/03/18 11:21:29;;;;;;;10.13;5.37;;;;;;;8.70;42.74;97153.50;5056386;28;20692;-68
2021/03/18 11:24:15;;;;;;;9.97;5.90;;;;;;;8.09;44.86;97152.06;5055222;28;20422;-67
2021/03/18 11:26:43;;;;;;;13.10;6.20;;;;;;;8.33;43.70;97156.84;5055149;28;20525;-67
2021/03/18 11:29:15;;;;;;;9.03;5.60;;;;;;;8.18;44.02;97159.06;5046308;28;20464;-67
2021/03/18 11:31:43;;;;;;;7.93;5.43;;;;;;;7.67;45.10;97145.31;5054992;28;20432;-67
2021/03/18 11:34:17;;;;;;;11.00;6.23;;;;;;;8.16;45.48;97140.09;5055682;28;20455;-68
2021/03/18 11:36:44;;;;;;;10.70;5.60;;;;;;;8.35;44.85;97143.66;5064231;28;21101;-68
2021/03/18 11:39:10;;;;;;;8.73;6.33;;;;;;;8.47;44.51;97132.09;5067681;28;20505;-68
2021/03/18 11:41:36;;;;;;;6.83;5.70;;;;;;;8.27;45.25;97133.91;5065450;28;20432;-66
2021/03/18 11:44:02;;;;;;;9.20;5.77;;;;;;;8.54;44.11;97135.78;5055993;28;20425;-68
2021/03/18 11:46:28;;;;;;;7.50;5.43;;;;;;;8.77;43.14;97125.00;5059308;28;20238;-67
2021/03/18 11:48:53;;;;;;;7.27;5.60;;;;;;;8.93;44.01;97123.56;5056310;28;20449;-67